Time;durP1;ratioP1;P1;durP2;ratioP2;P2;SDS_P1;SDS_P2;PMS_P1;PMS_P2;Temp;Humidity;BMP_temperature;BMP_pressure;BME280_temperature;BME280_humidity;BME280_pressure;Samples;Min_cycle;Max_cycle;Signal;HPM_P1;HPM_P2
2021/12/14 00:00:29;;;;;;;19.58;17.58;;;;;;;;;;5062088;28;24434;-57
2021/12/14 00:02:55;;;;;;;18.50;16.60;;;;;;;;;;5059558;28;24793;-57
2021/12/14 00:05:22;;;;;;;19.85;17.95;;;;;;;;;;5059633;28;24949;-57
2021/12/14 00:07:47;;;;;;;20.60;18.60;;;;;;;;;;5058258;28;25027;-57
2021/12/14 00:10:30;;;;;;;18.05;16.40;;;;;;;;;;5062243;28;24429;-57
2021/12/14 00:12:59;;;;;;;17.40;15.80;;;;;;;;;;5060415;28;24423;-57
2021/12/14 00:15:24;;;;;;;20.67;18.48;;;;;;;;;;5063335;28;24505;-56
2021/12/14 00:17:51;;;;;;;18.63;16.77;;;;;;;;;;5058983;28;24511;-56
2021/12/14 00:20:43;;;;;;;17.30;15.70;;;;;;;;;;5058126;28;24426;-56
2021/12/14 00:25:37;;;;;;;17.15;15.55;;;;;;;;;;5063143;28;24965;-56
2021/12/14 00:28:05;;;;;;;16.95;15.35;;;;;;;;;;5061149;28;24506;-56
2021/12/14 00:30:33;;;;;;;17.42;15.82;;;;;;;;;;5057914;28;24415;-57
2021/12/14 00:32:58;;;;;;;16.65;15.05;;;;;;;;;;5061567;28;24836;-57
2021/12/14 00:35:23;;;;;;;17.07;15.47;;;;;;;;;;5063169;28;24403;-56
2021/12/14 00:37:50;;;;;;;16.47;14.90;;;;;;;;;;5062017;28;24469;-57
2021/12/14 00:40:15;;;;;;;16.13;14.63;;;;;;;;;;5059775;28;24450;-57
2021/12/14 00:42:41;;;;;;;15.90;14.30;;;;;;;;;;5059283;28;24536;-56
2021/12/14 00:45:06;;;;;;;16.30;14.70;;;;;;;;;;5060318;28;24947;-57
2021/12/14 00:47:31;;;;;;;16.27;14.77;;;;;;;;;;5062435;28;24438;-57
2021/12/14 00:49:57;;;;;;;16.50;15.00;;;;;;;;;;5060635;28;24411;-57
2021/12/14 00:52:22;;;;;;;15.83;14.23;;;;;;;;;;5060839;28;24411;-56
2021/12/14 00:54:47;;;;;;;16.57;14.97;;;;;;;;;;5058968;28;24975;-56
2021/12/14 00:57:13;;;;;;;16.17;14.67;;;;;;;;;;5057206;28;24463;-56
2021/12/14 00:59:38;;;;;;;14.83;13.43;;;;;;;;;;5060730;28;24513;-57
2021/12/14 01:02:03;;;;;;;14.53;13.13;;;;;;;;;;5060326;28;24542;-57
2021/12/14 01:04:31;;;;;;;14.02;12.73;;;;;;;;;;5061976;28;24407;-57
2021/12/14 01:06:56;;;;;;;13.38;12.07;;;;;;;;;;5061228;28;24889;-56
2021/12/14 01:09:27;;;;;;;13.70;12.40;;;;;;;;;;5058793;28;25154;-57
2021/12/14 01:11:54;;;;;;;13.00;11.80;;;;;;;;;;5056503;28;24425;-57
2021/12/14 01:14:29;;;;;;;12.32;11.05;;;;;;;;;;5061914;28;24421;-57
2021/12/14 01:17:09;;;;;;;11.48;10.45;;;;;;;;;;5062053;28;24410;-57
2021/12/14 01:19:36;;;;;;;11.13;10.13;;;;;;;;;;5063078;28;24510;-58
2021/12/14 01:27:10;;;;;;;8.65;7.80;;;;;;;;;;5061550;28;24413;-58
2021/12/14 01:29:35;;;;;;;7.40;6.70;;;;;;;;;;5062299;28;24414;-56
2021/12/14 01:32:02;;;;;;;6.70;6.10;;;;;;;;;;5060630;28;24965;-56
2021/12/14 01:34:30;;;;;;;6.55;5.95;;;;;;;;;;5062576;28;24469;-59
2021/12/14 01:36:58;;;;;;;5.90;5.40;;;;;;;;;;5057401;28;24419;-58
2021/12/14 01:41:55;;;;;;;8.98;8.10;;;;;;;;;;5060685;28;24488;-57
2021/12/14 01:44:20;;;;;;;12.20;11.00;;;;;;;;;;5062823;28;24412;-57
2021/12/14 01:46:55;;;;;;;14.40;13.07;;;;;;;;;;5059383;28;24442;-56
2021/12/14 01:49:22;;;;;;;13.23;11.93;;;;;;;;;;5058968;28;24472;-56
2021/12/14 01:51:49;;;;;;;11.90;10.80;;;;;;;;;;5052678;28;24427;-56
2021/12/14 01:54:16;;;;;;;13.02;11.73;;;;;;;;;;5060690;28;24422;-56
2021/12/14 01:56:41;;;;;;;13.43;12.13;;;;;;;;;;5061775;28;24554;-56
2021/12/14 01:59:11;;;;;;;13.53;12.20;;;;;;;;;;5061000;28;25034;-57
2021/12/14 02:01:45;;;;;;;12.18;11.07;;;;;;;;;;5052897;28;25326;-57
2021/12/14 02:04:13;;;;;;;13.88;12.57;;;;;;;;;;5049848;28;24483;-57
2021/12/14 02:06:38;;;;;;;13.25;12.05;;;;;;;;;;5061874;28;24432;-56
2021/12/14 02:09:06;;;;;;;11.97;10.87;;;;;;;;;;5058556;28;24484;-56
2021/12/14 02:11:35;;;;;;;13.07;11.98;;;;;;;;;;5062633;28;24437;-56
2021/12/14 02:14:02;;;;;;;13.55;12.25;;;;;;;;;;5050152;28;24496;-56
2021/12/14 02:16:27;;;;;;;12.57;11.43;;;;;;;;;;5058086;28;24418;-57
2021/12/14 02:18:55;;;;;;;13.20;11.80;;;;;;;;;;5060240;28;24788;-56
2021/12/14 02:21:20;;;;;;;12.50;11.30;;;;;;;;;;5062823;28;24497;-56
2021/12/14 02:23:47;;;;;;;12.60;11.30;;;;;;;;;;5057096;28;24524;-56
2021/12/14 02:26:16;;;;;;;10.10;9.13;;;;;;;;;;5053363;28;24403;-56
2021/12/14 02:28:41;;;;;;;10.95;9.85;;;;;;;;;;5045759;28;24414;-56
2021/12/14 02:31:08;;;;;;;11.00;10.00;;;;;;;;;;5062730;28;24414;-57
2021/12/14 02:33:35;;;;;;;11.40;10.30;;;;;;;;;;5060561;28;24453;-57
2021/12/14 02:36:03;;;;;;;10.10;9.20;;;;;;;;;;5056617;28;25034;-57
2021/12/14 02:38:28;;;;;;;10.43;9.43;;;;;;;;;;5055024;28;24435;-57
2021/12/14 02:41:00;;;;;;;9.70;8.70;;;;;;;;;;5059947;28;24496;-56
2021/12/14 02:43:25;;;;;;;8.68;7.88;;;;;;;;;;5060243;28;25058;-57
2021/12/14 02:45:51;;;;;;;9.00;8.20;;;;;;;;;;5061177;28;25000;-57
2021/12/14 02:48:16;;;;;;;8.90;8.10;;;;;;;;;;5059263;28;24422;-57
2021/12/14 02:50:43;;;;;;;8.30;7.60;;;;;;;;;;5057912;28;25062;-57
2021/12/14 02:53:09;;;;;;;8.00;7.30;;;;;;;;;;5054809;28;24450;-57
2021/12/14 02:55:35;;;;;;;10.68;9.57;;;;;;;;;;5057259;28;24425;-57
2021/12/14 02:58:05;;;;;;;9.83;8.93;;;;;;;;;;5059396;28;24987;-57
2021/12/14 03:00:37;;;;;;;11.52;10.43;;;;;;;;;;5058403;28;24434;-57
2021/12/14 03:03:03;;;;;;;10.57;9.68;;;;;;;;;;5058233;28;24518;-57
2021/12/14 03:05:31;;;;;;;9.10;8.30;;;;;;;;;;5050659;28;24956;-57
2021/12/14 03:07:59;;;;;;;10.10;9.10;;;;;;;;;;5050431;28;24434;-57
2021/12/14 03:10:50;;;;;;;8.77;7.97;;;;;;;;;;5061054;28;25294;-57
2021/12/14 03:13:15;;;;;;;7.63;6.82;;;;;;;;;;5063830;28;24492;-57
2021/12/14 03:15:47;;;;;;;8.00;7.20;;;;;;;;;;5062701;28;24965;-57
2021/12/14 03:18:15;;;;;;;8.20;7.50;;;;;;;;;;5061970;28;24526;-56
2021/12/14 03:20:48;;;;;;;7.00;6.40;;;;;;;;;;5061377;28;24426;-57
2021/12/14 03:23:16;;;;;;;6.40;5.80;;;;;;;;;;5065427;28;24870;-56
2021/12/14 03:25:43;;;;;;;6.90;6.20;;;;;;;;;;5060304;28;24468;-57
2021/12/14 03:28:11;;;;;;;6.50;5.90;;;;;;;;;;5060443;28;24479;-57
2021/12/14 03:30:42;;;;;;;6.65;6.05;;;;;;;;;;5065338;28;24504;-56
2021/12/14 03:33:16;;;;;;;5.72;5.13;;;;;;;;;;5063122;28;24419;-57
2021/12/14 03:35:41;;;;;;;6.30;5.70;;;;;;;;;;5064484;28;24410;-57
2021/12/14 03:38:09;;;;;;;6.10;5.50;;;;;;;;;;5058586;28;24429;-57
2021/12/14 03:40:34;;;;;;;6.10;5.60;;;;;;;;;;5062763;28;25034;-57
2021/12/14 03:42:59;;;;;;;6.50;5.90;;;;;;;;;;5062937;28;24430;-56
2021/12/14 03:45:24;;;;;;;5.60;5.10;;;;;;;;;;5065232;28;24959;-56
2021/12/14 03:47:54;;;;;;;5.90;5.37;;;;;;;;;;5057593;28;24787;-57
2021/12/14 03:50:22;;;;;;;5.72;5.20;;;;;;;;;;5061697;28;24418;-57
2021/12/14 03:52:48;;;;;;;5.10;4.60;;;;;;;;;;5060394;28;24493;-57
2021/12/14 03:55:21;;;;;;;4.97;4.47;;;;;;;;;;5060991;28;25077;-57
2021/12/14 03:57:47;;;;;;;5.22;4.10;;;;;;;;;;5058869;28;24967;-57
2021/12/14 04:00:16;;;;;;;4.13;3.83;;;;;;;;;;5061066;28;24472;-56
2021/12/14 04:02:42;;;;;;;3.30;3.00;;;;;;;;;;5058966;28;24407;-56
2021/12/14 04:05:11;;;;;;;3.90;3.38;;;;;;;;;;5062365;28;24484;-57
2021/12/14 04:07:37;;;;;;;4.22;3.60;;;;;;;;;;5057627;28;24503;-57
2021/12/14 04:10:05;;;;;;;4.00;3.50;;;;;;;;;;5053051;28;24453;-58
2021/12/14 04:12:30;;;;;;;4.10;3.70;;;;;;;;;;5045117;28;24495;-58
2021/12/14 04:14:56;;;;;;;4.10;3.70;;;;;;;;;;5058314;28;24846;-58
2021/12/14 04:17:23;;;;;;;3.60;3.30;;;;;;;;;;5054465;28;24415;-58
2021/12/14 04:19:48;;;;;;;4.25;3.85;;;;;;;;;;5049210;28;24414;-58
2021/12/14 04:22:16;;;;;;;4.30;3.90;;;;;;;;;;5061813;28;24444;-58
2021/12/14 04:24:42;;;;;;;4.50;4.10;;;;;;;;;;5063944;28;24418;-58
2021/12/14 04:27:09;;;;;;;4.72;4.10;;;;;;;;;;5048809;28;24424;-58
2021/12/14 04:29:35;;;;;;;4.75;4.35;;;;;;;;;;5051275;28;24441;-58
2021/12/14 04:32:00;;;;;;;4.70;4.27;;;;;;;;;;5063306;28;24418;-58
2021/12/14 04:34:28;;;;;;;4.57;4.17;;;;;;;;;;5063217;28;24474;-58
2021/12/14 04:36:54;;;;;;;4.63;4.20;;;;;;;;;;5061544;28;24515;-58
2021/12/14 04:53:10;;;;;;;4.57;4.15;;;;;;;;;;5059143;28;24773;-58
2021/12/14 04:55:35;;;;;;;5.28;4.70;;;;;;;;;;5063851;28;24414;-58
2021/12/14 04:58:00;;;;;;;5.60;5.10;;;;;;;;;;5060291;28;24449;-58
2021/12/14 05:00:30;;;;;;;5.90;5.40;;;;;;;;;;5058301;28;24491;-58
2021/12/14 05:02:57;;;;;;;6.57;5.97;;;;;;;;;;5057493;28;24421;-58
2021/12/14 05:05:32;;;;;;;7.00;6.40;;;;;;;;;;5063307;28;24729;-58
2021/12/14 05:10:53;;;;;;;8.30;7.60;;;;;;;;;;5035100;28;24414;-57
2021/12/14 05:13:32;;;;;;;7.80;7.10;;;;;;;;;;5053641;28;24804;-57
2021/12/14 05:15:58;;;;;;;7.10;6.47;;;;;;;;;;5060237;28;24426;-57
2021/12/14 05:18:23;;;;;;;7.37;6.67;;;;;;;;;;5061990;28;24419;-57
2021/12/14 05:20:48;;;;;;;5.50;5.00;;;;;;;;;;5058618;28;24905;-57
2021/12/14 05:23:21;;;;;;;4.97;4.57;;;;;;;;;;5050104;28;24446;-57
2021/12/14 05:25:46;;;;;;;5.90;5.40;;;;;;;;;;5056986;28;24460;-56
2021/12/14 05:28:15;;;;;;;6.00;5.50;;;;;;;;;;5060225;28;24832;-57
2021/12/14 05:30:41;;;;;;;5.82;5.22;;;;;;;;;;5057787;28;24461;-57
2021/12/14 05:33:08;;;;;;;6.20;5.60;;;;;;;;;;5054468;28;24499;-57
2021/12/14 05:35:36;;;;;;;6.70;6.03;;;;;;;;;;5056484;28;24411;-58
2021/12/14 05:38:04;;;;;;;7.03;6.43;;;;;;;;;;5051541;28;24426;-57
2021/12/14 05:43:07;;;;;;;7.90;7.20;;;;;;;;;;5056022;28;24564;-57
2021/12/14 05:45:40;;;;;;;8.15;7.35;;;;;;;;;;5040014;28;24967;-57
2021/12/14 05:48:06;;;;;;;8.00;7.30;;;;;;;;;;5045173;28;24542;-57
2021/12/14 05:50:34;;;;;;;7.30;6.60;;;;;;;;;;5055680;28;24446;-57
2021/12/14 05:53:00;;;;;;;7.82;7.13;;;;;;;;;;5056117;28;24422;-57
2021/12/14 05:55:30;;;;;;;8.10;7.30;;;;;;;;;;5057011;28;24533;-57
2021/12/14 05:57:56;;;;;;;8.27;7.47;;;;;;;;;;5056139;28;24424;-57
2021/12/14 06:00:21;;;;;;;8.20;7.40;;;;;;;;;;5052766;28;24481;-57
2021/12/14 06:02:47;;;;;;;8.40;7.60;;;;;;;;;;5057480;28;24446;-57
2021/12/14 06:05:14;;;;;;;8.10;7.30;;;;;;;;;;5054345;28;24391;-57
2021/12/14 06:07:39;;;;;;;7.65;6.95;;;;;;;;;;5057269;28;24488;-57
2021/12/14 06:10:04;;;;;;;7.72;7.03;;;;;;;;;;5057636;28;25923;-57
2021/12/14 06:12:31;;;;;;;9.10;8.07;;;;;;;;;;5059236;28;24502;-57
2021/12/14 06:14:59;;;;;;;7.43;6.70;;;;;;;;;;5056066;28;24995;-58
2021/12/14 06:17:29;;;;;;;8.23;7.43;;;;;;;;;;5047714;28;24641;-57
2021/12/14 06:19:57;;;;;;;8.05;7.25;;;;;;;;;;5053494;28;24415;-56
2021/12/14 06:22:23;;;;;;;7.13;6.43;;;;;;;;;;5057768;28;24541;-57
2021/12/14 06:24:50;;;;;;;5.72;5.22;;;;;;;;;;5059226;28;24863;-57
2021/12/14 06:27:16;;;;;;;5.93;5.32;;;;;;;;;;5041900;28;24422;-57
2021/12/14 06:29:43;;;;;;;5.20;4.78;;;;;;;;;;5044811;28;25011;-57
2021/12/14 06:32:17;;;;;;;6.40;5.80;;;;;;;;;;5060095;28;24720;-58
2021/12/14 06:34:44;;;;;;;5.43;4.93;;;;;;;;;;5062247;28;24530;-57
2021/12/14 06:37:17;;;;;;;6.32;5.72;;;;;;;;;;5058697;28;24483;-58
2021/12/14 06:40:01;;;;;;;6.60;6.00;;;;;;;;;;5059331;28;24395;-58
2021/12/14 06:42:26;;;;;;;7.30;6.60;;;;;;;;;;5062502;28;24955;-58
2021/12/14 06:45:02;;;;;;;7.13;6.43;;;;;;;;;;5058865;28;24493;-58
2021/12/14 06:47:31;;;;;;;5.88;5.38;;;;;;;;;;5062014;28;24504;-58
2021/12/14 06:49:58;;;;;;;5.30;4.80;;;;;;;;;;5063317;28;24461;-58
2021/12/14 06:52:23;;;;;;;5.20;4.80;;;;;;;;;;5063682;28;24452;-58
2021/12/14 06:54:49;;;;;;;6.10;5.60;;;;;;;;;;5062029;28;24506;-58
2021/12/14 06:57:14;;;;;;;5.70;5.20;;;;;;;;;;5047869;28;24960;-58
2021/12/14 06:59:39;;;;;;;4.50;4.10;;;;;;;;;;5059433;28;24411;-58
2021/12/14 07:02:07;;;;;;;6.70;6.10;;;;;;;;;;5058183;28;24492;-58
2021/12/14 07:04:34;;;;;;;6.83;6.13;;;;;;;;;;5056064;28;24407;-58
2021/12/14 07:07:02;;;;;;;6.18;5.60;;;;;;;;;;5055087;28;24607;-58
2021/12/14 07:09:30;;;;;;;6.70;6.10;;;;;;;;;;5055213;28;24426;-58
2021/12/14 07:12:15;;;;;;;6.75;6.15;;;;;;;;;;5056964;28;24836;-59
2021/12/14 07:15:03;;;;;;;6.30;5.70;;;;;;;;;;5063515;28;24796;-58
2021/12/14 07:17:31;;;;;;;6.65;5.95;;;;;;;;;;5041901;28;24511;-58
2021/12/14 07:20:02;;;;;;;6.25;5.65;;;;;;;;;;5055875;28;24939;-58
2021/12/14 07:22:33;;;;;;;7.25;6.55;;;;;;;;;;5053611;28;24835;-58
2021/12/14 07:25:11;;;;;;;5.40;5.00;;;;;;;;;;5052898;28;24847;-58
2021/12/14 07:27:37;;;;;;;4.38;3.97;;;;;;;;;;5059849;28;24548;-58
2021/12/14 07:30:21;;;;;;;3.80;3.50;;;;;;;;;;5061271;28;24513;-58
2021/12/14 07:32:56;;;;;;;3.72;3.42;;;;;;;;;;5046595;28;24506;-58
2021/12/14 07:35:44;;;;;;;3.60;3.30;;;;;;;;;;5054660;28;24439;-58
2021/12/14 07:38:09;;;;;;;3.50;3.20;;;;;;;;;;5040794;28;24916;-58
2021/12/14 07:40:37;;;;;;;3.15;2.85;;;;;;;;;;5055632;28;24985;-58
2021/12/14 07:43:06;;;;;;;3.00;2.80;;;;;;;;;;5069029;28;25092;-57
2021/12/14 07:45:32;;;;;;;3.38;3.08;;;;;;;;;;5047332;28;24415;-57
2021/12/14 07:47:57;;;;;;;3.05;2.80;;;;;;;;;;5051173;28;24465;-57
2021/12/14 07:50:35;;;;;;;3.33;3.03;;;;;;;;;;5057789;28;24445;-57
2021/12/14 07:53:00;;;;;;;2.67;2.47;;;;;;;;;;5060975;28;24426;-56
2021/12/14 07:55:27;;;;;;;2.50;2.30;;;;;;;;;;5060604;28;24923;-57
2021/12/14 07:57:52;;;;;;;3.10;2.80;;;;;;;;;;5062241;28;25233;-57
2021/12/14 08:00:20;;;;;;;2.80;2.47;;;;;;;;;;5050348;28;24427;-57
2021/12/14 08:02:52;;;;;;;2.78;2.58;;;;;;;;;;5040150;28;24510;-57
2021/12/14 08:05:22;;;;;;;4.30;3.30;;;;;;;;;;5041236;28;25028;-57
2021/12/14 08:07:53;;;;;;;3.20;2.70;;;;;;;;;;5043155;28;24465;-57
2021/12/14 08:10:24;;;;;;;2.60;2.40;;;;;;;;;;5044267;28;24435;-57
2021/12/14 08:12:51;;;;;;;2.40;2.20;;;;;;;;;;5044022;28;24433;-57
2021/12/14 08:15:19;;;;;;;2.47;2.28;;;;;;;;;;5040616;28;24408;-57
2021/12/14 08:17:46;;;;;;;2.50;2.30;;;;;;;;;;5040344;28;24420;-57
2021/12/14 08:20:13;;;;;;;2.65;2.45;;;;;;;;;;5038206;28;24446;-57
2021/12/14 08:22:40;;;;;;;2.25;2.10;;;;;;;;;;5044338;28;25462;-57
2021/12/14 08:25:06;;;;;;;3.00;2.70;;;;;;;;;;5042449;28;24396;-57
2021/12/14 08:27:32;;;;;;;2.60;2.40;;;;;;;;;;5054012;28;24494;-57
2021/12/14 08:29:59;;;;;;;2.77;2.57;;;;;;;;;;5061705;28;24834;-57
2021/12/14 08:32:28;;;;;;;2.55;2.35;;;;;;;;;;5059541;28;24437;-57
2021/12/14 08:34:53;;;;;;;3.30;2.70;;;;;;;;;;5060224;28;24508;-57
2021/12/14 08:37:26;;;;;;;2.90;2.70;;;;;;;;;;5042472;28;24939;-57
2021/12/14 08:39:59;;;;;;;2.80;2.60;;;;;;;;;;5057768;28;24514;-57
2021/12/14 08:42:37;;;;;;;3.00;2.80;;;;;;;;;;5058609;28;24454;-57
2021/12/14 08:45:24;;;;;;;3.30;3.00;;;;;;;;;;5062314;28;24422;-57
2021/12/14 08:47:51;;;;;;;3.30;3.00;;;;;;;;;;5063473;28;24828;-57
2021/12/14 08:50:16;;;;;;;3.15;2.95;;;;;;;;;;5042402;28;24490;-57
2021/12/14 08:52:42;;;;;;;3.70;3.40;;;;;;;;;;5038062;28;24483;-57
2021/12/14 08:55:09;;;;;;;3.80;3.50;;;;;;;;;;5041816;28;24940;-57
2021/12/14 08:57:34;;;;;;;3.22;2.92;;;;;;;;;;5043942;28;24506;-57
2021/12/14 09:00:06;;;;;;;3.50;3.20;;;;;;;;;;5041708;28;24507;-57
2021/12/14 09:02:31;;;;;;;3.83;3.35;;;;;;;;;;5042987;28;24415;-57
2021/12/14 09:05:00;;;;;;;3.40;3.10;;;;;;;;;;5038464;28;24428;-57
2021/12/14 09:07:27;;;;;;;4.00;3.60;;;;;;;;;;5037720;28;24419;-57
2021/12/14 09:09:53;;;;;;;3.70;3.40;;;;;;;;;;5043078;28;24831;-57
2021/12/14 09:12:27;;;;;;;5.20;3.90;;;;;;;;;;5062827;28;24395;-57
2021/12/14 09:14:54;;;;;;;4.20;3.80;;;;;;;;;;5060834;28;24418;-57
2021/12/14 09:17:24;;;;;;;4.47;4.10;;;;;;;;;;5060873;28;24765;-56
2021/12/14 09:19:52;;;;;;;5.10;4.70;;;;;;;;;;5055041;28;24791;-57
2021/12/14 09:22:20;;;;;;;4.60;4.20;;;;;;;;;;5061906;28;24444;-57
2021/12/14 09:24:45;;;;;;;5.60;5.00;;;;;;;;;;5062326;28;24377;-57
2021/12/14 09:27:13;;;;;;;5.90;5.40;;;;;;;;;;5057966;28;24403;-57
2021/12/14 09:29:38;;;;;;;5.60;5.10;;;;;;;;;;5038660;28;24445;-57
2021/12/14 09:32:05;;;;;;;6.13;5.57;;;;;;;;;;5044040;28;25041;-57
2021/12/14 09:34:32;;;;;;;6.40;5.90;;;;;;;;;;5042194;28;25072;-57
2021/12/14 09:36:58;;;;;;;7.00;6.32;;;;;;;;;;5040632;28;24426;-57
2021/12/14 09:39:29;;;;;;;6.60;6.00;;;;;;;;;;5042628;28;24450;-57
2021/12/14 09:41:55;;;;;;;6.33;5.83;;;;;;;;;;5040771;28;24415;-57
2021/12/14 09:44:22;;;;;;;6.03;5.53;;;;;;;;;;5038015;28;24411;-57
2021/12/14 09:46:47;;;;;;;6.30;5.80;;;;;;;;;;5042188;28;24403;-57
2021/12/14 09:49:14;;;;;;;6.80;6.20;;;;;;;;;;5052852;28;24402;-56
2021/12/14 09:51:42;;;;;;;7.13;6.53;;;;;;;;;;5057201;28;24480;-56
2021/12/14 09:54:10;;;;;;;6.63;6.03;;;;;;;;;;5060287;28;25944;-57
2021/12/14 09:56:37;;;;;;;6.80;6.30;;;;;;;;;;5062428;28;24410;-57
2021/12/14 09:59:03;;;;;;;7.30;6.43;;;;;;;;;;5060511;28;25025;-57
2021/12/14 10:01:31;;;;;;;6.47;5.97;;;;;;;;;;5037432;28;24538;-57
2021/12/14 10:03:58;;;;;;;6.83;6.23;;;;;;;;;;5038364;28;24969;-57
2021/12/14 10:06:25;;;;;;;6.70;6.10;;;;;;;;;;5041905;28;24932;-57
2021/12/14 10:08:56;;;;;;;6.95;6.35;;;;;;;;;;5042032;28;24423;-57
2021/12/14 10:11:35;;;;;;;6.80;6.10;;;;;;;;;;5040767;28;24461;-58
2021/12/14 10:14:02;;;;;;;6.40;5.80;;;;;;;;;;5036942;28;24395;-57
2021/12/14 10:16:27;;;;;;;6.43;5.82;;;;;;;;;;5042059;28;24422;-57
2021/12/14 10:18:55;;;;;;;6.60;6.00;;;;;;;;;;5049996;28;24464;-58
2021/12/14 10:21:29;;;;;;;7.27;6.57;;;;;;;;;;5066512;28;24435;-57
2021/12/14 10:23:55;;;;;;;7.30;6.60;;;;;;;;;;5063702;28;25576;-57
2021/12/14 10:26:23;;;;;;;7.90;7.20;;;;;;;;;;5065847;28;24773;-57
2021/12/14 10:28:49;;;;;;;6.70;6.10;;;;;;;;;;5064188;28;24421;-57
2021/12/14 10:31:19;;;;;;;7.10;6.50;;;;;;;;;;5061270;28;24399;-58
2021/12/14 10:33:44;;;;;;;7.10;6.50;;;;;;;;;;5060182;28;25237;-57
2021/12/14 10:36:23;;;;;;;6.80;6.20;;;;;;;;;;5060643;28;24476;-57
2021/12/14 10:44:13;;;;;;;6.90;6.30;;;;;;;;;;5063955;28;24394;-57
2021/12/14 10:46:45;;;;;;;7.00;6.30;;;;;;;;;;5062572;28;24391;-57
2021/12/14 10:49:10;;;;;;;6.82;6.22;;;;;;;;;;5062015;28;24444;-57
2021/12/14 10:51:38;;;;;;;6.90;6.30;;;;;;;;;;5064270;28;24422;-57
2021/12/14 10:54:06;;;;;;;7.20;6.50;;;;;;;;;;5063814;28;24418;-57
2021/12/14 10:56:35;;;;;;;8.40;7.60;;;;;;;;;;5063644;28;24397;-57
2021/12/14 10:59:01;;;;;;;7.78;7.03;;;;;;;;;;5060277;28;24396;-57
2021/12/14 11:01:30;;;;;;;9.05;8.25;;;;;;;;;;5061884;28;24449;-57
2021/12/14 11:03:58;;;;;;;8.43;7.72;;;;;;;;;;5063245;28;24404;-57
2021/12/14 11:06:28;;;;;;;9.82;8.93;;;;;;;;;;5045344;28;24403;-57
2021/12/14 11:09:39;;;;;;;9.77;8.98;;;;;;;;;;5043629;28;24939;-56
2021/12/14 11:11:53;;;;;;;9.77;8.88;;;;;;;;;;5051667;28;24453;-58
2021/12/14 11:14:24;;;;;;;9.85;8.95;;;;;;;;;;5062670;28;25219;-57
2021/12/14 11:19:36;;;;;;;11.35;10.25;;;;;;;;;;5065367;28;24981;-57
2021/12/14 11:22:22;;;;;;;11.60;10.40;;;;;;;;;;5061464;28;24438;-58
2021/12/14 11:24:50;;;;;;;9.68;8.88;;;;;;;;;;5042382;28;25020;-58
2021/12/14 11:27:17;;;;;;;9.20;8.40;;;;;;;;;;5040497;28;25023;-57
2021/12/14 11:29:43;;;;;;;9.20;8.30;;;;;;;;;;5059450;28;24804;-57
2021/12/14 11:32:14;;;;;;;10.00;9.00;;;;;;;;;;5061796;28;24467;-57
2021/12/14 11:34:40;;;;;;;8.90;8.10;;;;;;;;;;5040317;28;24419;-56
2021/12/14 11:37:08;;;;;;;8.03;7.33;;;;;;;;;;5042906;28;24410;-57
2021/12/14 11:39:42;;;;;;;8.65;7.90;;;;;;;;;;5044588;28;24418;-56
2021/12/14 11:42:08;;;;;;;7.82;7.13;;;;;;;;;;5042745;28;24418;-57
2021/12/14 11:44:42;;;;;;;8.70;7.90;;;;;;;;;;5040396;28;24753;-57
2021/12/14 11:48:03;;;;;;;7.80;7.10;;;;;;;;;;5040523;28;24394;-57
2021/12/14 11:50:14;;;;;;;8.30;7.53;;;;;;;;;;5055445;28;24739;-58
2021/12/14 11:52:49;;;;;;;8.25;7.55;;;;;;;;;;5062567;28;24429;-57
2021/12/14 11:55:33;;;;;;;8.43;7.72;;;;;;;;;;5056304;28;24931;-57
2021/12/14 11:58:01;;;;;;;9.10;8.30;;;;;;;;;;5052484;28;24395;-57
2021/12/14 12:00:27;;;;;;;8.20;7.50;;;;;;;;;;5044535;28;25168;-59
2021/12/14 12:02:52;;;;;;;8.17;7.47;;;;;;;;;;5038458;28;24414;-57
2021/12/14 12:05:22;;;;;;;8.40;7.70;;;;;;;;;;5040504;28;24398;-56
2021/12/14 12:10:51;;;;;;;9.55;8.75;;;;;;;;;;5020605;28;24418;-57
2021/12/14 12:13:16;;;;;;;8.90;8.10;;;;;;;;;;5019716;28;24972;-56
2021/12/14 12:15:42;;;;;;;10.73;9.73;;;;;;;;;;5028124;28;25031;-56
2021/12/14 12:18:08;;;;;;;10.07;9.07;;;;;;;;;;5038968;28;24409;-56
2021/12/14 12:20:46;;;;;;;10.60;9.60;;;;;;;;;;5038222;28;24411;-57
2021/12/14 12:23:13;;;;;;;10.30;9.40;;;;;;;;;;5056295;28;24484;-56
2021/12/14 12:25:53;;;;;;;10.38;9.48;;;;;;;;;;5064408;28;24497;-56
2021/12/14 12:28:31;;;;;;;10.18;9.23;;;;;;;;;;5061840;28;24379;-57
2021/12/14 12:31:17;;;;;;;11.07;10.07;;;;;;;;;;5058560;28;24472;-57
2021/12/14 12:33:43;;;;;;;15.63;14.13;;;;;;;;;;5051915;28;24988;-57
2021/12/14 12:36:15;;;;;;;12.43;11.23;;;;;;;;;;5062209;28;24484;-57
2021/12/14 12:39:00;;;;;;;12.90;11.80;;;;;;;;;;5061829;28;24912;-56
2021/12/14 12:41:28;;;;;;;12.40;11.20;;;;;;;;;;5060294;28;24435;-56
2021/12/14 12:43:57;;;;;;;11.88;10.75;;;;;;;;;;5058132;28;24432;-56
2021/12/14 12:46:25;;;;;;;11.13;10.13;;;;;;;;;;5043378;28;24445;-57
2021/12/14 12:48:59;;;;;;;10.90;10.00;;;;;;;;;;5048653;28;24442;-57
2021/12/14 12:51:33;;;;;;;10.38;9.48;;;;;;;;;;5060160;28;24993;-57
2021/12/14 12:54:17;;;;;;;9.05;8.25;;;;;;;;;;5057668;28;24835;-56
2021/12/14 12:56:43;;;;;;;11.02;9.93;;;;;;;;;;5059642;28;24383;-56
2021/12/14 12:59:09;;;;;;;10.50;9.60;;;;;;;;;;5056901;28;24892;-56
2021/12/14 13:01:35;;;;;;;10.00;9.10;;;;;;;;;;5061581;28;24435;-56
2021/12/14 13:04:00;;;;;;;9.77;8.88;;;;;;;;;;5057447;28;24444;-57
2021/12/14 13:06:25;;;;;;;11.10;10.17;;;;;;;;;;5061150;28;24737;-57
2021/12/14 13:08:52;;;;;;;11.07;10.07;;;;;;;;;;5060846;28;24415;-58
2021/12/14 13:11:17;;;;;;;10.80;9.90;;;;;;;;;;5051099;28;24450;-58
2021/12/14 13:13:47;;;;;;;10.70;9.80;;;;;;;;;;5061600;28;24505;-59
2021/12/14 13:16:24;;;;;;;10.05;9.15;;;;;;;;;;5059036;28;24452;-56
2021/12/14 13:18:51;;;;;;;9.60;8.80;;;;;;;;;;5058655;28;24442;-56
2021/12/14 13:21:16;;;;;;;10.05;9.15;;;;;;;;;;5058729;28;24986;-56
2021/12/14 13:23:44;;;;;;;9.85;8.93;;;;;;;;;;5059658;28;24973;-56
2021/12/14 13:26:24;;;;;;;9.30;8.50;;;;;;;;;;5060646;28;24745;-56
2021/12/14 13:28:51;;;;;;;9.02;8.23;;;;;;;;;;5062368;28;24391;-56
2021/12/14 13:31:42;;;;;;;8.88;7.97;;;;;;;;;;5051888;28;24814;-56
2021/12/14 13:34:11;;;;;;;10.30;9.30;;;;;;;;;;5045402;28;25006;-57
2021/12/14 13:36:37;;;;;;;9.37;8.47;;;;;;;;;;5062029;28;24478;-56
2021/12/14 13:39:03;;;;;;;8.70;7.90;;;;;;;;;;5051665;28;24426;-56
2021/12/14 13:41:47;;;;;;;9.07;8.20;;;;;;;;;;5060605;28;24431;-56
2021/12/14 13:44:13;;;;;;;8.90;8.00;;;;;;;;;;5060383;28;25319;-56
2021/12/14 13:46:38;;;;;;;9.82;8.82;;;;;;;;;;5061626;28;24418;-56
2021/12/14 13:49:03;;;;;;;8.82;8.02;;;;;;;;;;5057688;28;24413;-56
2021/12/14 13:51:30;;;;;;;8.30;7.60;;;;;;;;;;5058369;28;24395;-56
2021/12/14 13:53:56;;;;;;;9.77;8.88;;;;;;;;;;5060737;28;24486;-56
2021/12/14 13:56:29;;;;;;;9.07;8.27;;;;;;;;;;5061818;28;24399;-56
2021/12/14 13:58:56;;;;;;;8.30;7.50;;;;;;;;;;5058155;28;24467;-56
2021/12/14 14:01:24;;;;;;;9.77;8.88;;;;;;;;;;5062346;28;24429;-56
2021/12/14 14:03:51;;;;;;;8.80;8.00;;;;;;;;;;5062247;28;24481;-59
2021/12/14 14:06:18;;;;;;;8.60;7.80;;;;;;;;;;5058357;28;24952;-56
2021/12/14 14:08:53;;;;;;;8.20;7.50;;;;;;;;;;5058061;28;24792;-56
2021/12/14 14:11:23;;;;;;;9.18;8.30;;;;;;;;;;5061487;28;24411;-56
2021/12/14 14:13:49;;;;;;;9.20;8.20;;;;;;;;;;5062518;28;24410;-56
2021/12/14 14:16:15;;;;;;;9.10;8.30;;;;;;;;;;5057147;28;24410;-57
2021/12/14 14:18:42;;;;;;;9.03;8.23;;;;;;;;;;5057993;28;24426;-57
2021/12/14 14:21:08;;;;;;;8.93;8.13;;;;;;;;;;5057606;28;24493;-56
2021/12/14 14:23:40;;;;;;;9.80;8.80;;;;;;;;;;5062339;28;24761;-57
2021/12/14 14:26:08;;;;;;;9.88;8.88;;;;;;;;;;5059380;28;24407;-56
2021/12/14 14:28:41;;;;;;;9.10;8.30;;;;;;;;;;5062048;28;24399;-56
2021/12/14 14:31:07;;;;;;;10.40;9.40;;;;;;;;;;5055036;28;25313;-56
2021/12/14 14:33:50;;;;;;;9.40;8.50;;;;;;;;;;5060565;28;24426;-56
2021/12/14 14:36:24;;;;;;;10.30;9.40;;;;;;;;;;5060763;28;24390;-56
2021/12/14 14:38:50;;;;;;;10.40;9.40;;;;;;;;;;5042121;28;24688;-56
2021/12/14 14:41:18;;;;;;;10.27;9.25;;;;;;;;;;5043544;28;24784;-56
2021/12/14 14:44:02;;;;;;;11.43;10.30;;;;;;;;;;5056676;28;24440;-56
2021/12/14 14:46:40;;;;;;;11.48;10.38;;;;;;;;;;5058019;28;24437;-56
2021/12/14 14:49:10;;;;;;;10.85;9.85;;;;;;;;;;5060587;28;24499;-56
2021/12/14 14:51:54;;;;;;;9.88;8.98;;;;;;;;;;5060367;28;24832;-56
2021/12/14 14:54:41;;;;;;;9.77;8.88;;;;;;;;;;5060749;28;24406;-56
2021/12/14 14:57:06;;;;;;;12.20;11.00;;;;;;;;;;5055858;28;24500;-56
2021/12/14 14:59:31;;;;;;;11.02;10.02;;;;;;;;;;5055572;28;24504;-56
2021/12/14 15:01:56;;;;;;;10.40;9.40;;;;;;;;;;5056826;28;24517;-56
2021/12/14 15:04:21;;;;;;;10.27;9.30;;;;;;;;;;5045714;28;24757;-56
2021/12/14 15:06:48;;;;;;;9.60;8.70;;;;;;;;;;5045144;28;24860;-56
2021/12/14 15:09:20;;;;;;;10.85;9.55;;;;;;;;;;5053764;28;24422;-56
2021/12/14 15:11:49;;;;;;;11.38;10.27;;;;;;;;;;5056685;28;24435;-56
2021/12/14 15:14:18;;;;;;;11.02;9.93;;;;;;;;;;5041065;28;24477;-55
2021/12/14 15:16:58;;;;;;;10.70;9.75;;;;;;;;;;5044839;28;24765;-55
2021/12/14 15:19:25;;;;;;;10.37;9.37;;;;;;;;;;5057789;28;25047;-57
2021/12/14 15:21:50;;;;;;;10.32;9.32;;;;;;;;;;5045958;28;24510;-56
2021/12/14 15:24:34;;;;;;;11.63;10.52;;;;;;;;;;5059320;28;24501;-56
2021/12/14 15:27:05;;;;;;;10.93;9.82;;;;;;;;;;5062961;28;24386;-56